Hauptseite
METAR-TAF:

METAR-TAF

Flughäfen :

Fliegerhorst Faßberg

Faßberg, Deutschland

Breite: 52-55N, Länge: 010-11E, Höhe: 75 m

Beobachtung

Neuester Wetterbericht von vor 52 Minuten, um 13:20 UTC
Wind 5 kt aus Südwest
Temperatur 15°C
Luftfeuchtigkeit 67%
Luftdruck 1010 hPa
Sichtweite 10 km oder mehr
Aufgelockert bewölkt in der Höhe von 2500 ft
Durchbrochene Bewölkung in der Höhe von 5000 ft

METAR: ETHS 281320Z 23005KT 9999 SCT025 BKN050 15/09 Q1010 BLU BLU

Zeit: 16:12 (14:12 UTC)

Prognose

Neuester Wetterbericht von vor 52 Minuten, um 13:20 UTC
Gültige Prognose vom 28 um 14 UTC bis 28 um 23 UTC
Wind 8 kt aus Süd/Südwest
Sichtweite 10 km oder mehr
Aufgelockert bewölkt in der Höhe von 2000 ft
Durchbrochene Bewölkung in der Höhe von 5000 ft

TAF: ETHS 281320Z 2814/2823 21008KT 9999 NSW SCT020 BKN050

Wetterbeobachtungen und Prognosen von mehr als 4000 Flughäfen (METAR und TAF Bericht).

Die verfügbaren Stationen werden durch gelbe und rote Markierungen auf der Karte dargestellt.

Führen Sie die Maus auf sie, um den Namen der Station zu sehen.

Darauf klicken, um die Beobachtung von Wetterbeobachtungen und Prognosen zu sehen.

Um die Karte zu ändern : klicken Sie auf den grünen Tasten mit einem schwarzen Kreuz Zum Vergrößern, auf den grünen Button mit einem Gedankenstrich zu verkleinern, oder auf die grünen Pfeile für benachbarte Karten.


METAR-TAF: